Create Tblcommutelog Verified Points Advance Search
| # | Trip ID | Id Commuter | Trip Date | Trip Num | Current Lat | Current Lng | Delta Distance | Current Time | Activity | Activity Confidence | Current Speed | |
|---|---|---|---|---|---|---|---|---|---|---|---|---|
| 70181 | 250929_786124_16654401_1622 | 786124 | (not set) | (not set) | 39.347330520357 | -77.389770781779 | 29.796 | 2025-09-29 17:13:23 | in_vehicle | 100 | 7.4610852325051 | |
| 70182 | 250929_786124_16654401_1622 | 786124 | (not set) | (not set) | 39.347330520357 | -77.389770781779 | 29.796 | 2025-09-29 17:13:23 | in_vehicle | 100 | 7.4610852325051 | |
| 70183 | 250929_759217_16625734_1643 | 759217 | (not set) | (not set) | 38.908921924944 | -77.002402296809 | 2.4051 | 2025-09-29 17:13:23 | in_vehicle | 100 | 5.9679741074861 | |
| 70184 | 250929_788326_16656926_1709 | 788326 | (not set) | (not set) | 39.284452820116 | -76.612967751894 | 0.3238 | 2025-09-29 17:13:23 | on_bicycle | 100 | 2.0697917691132 | |
| 70185 | 250929_788326_16656926_1709 | 788326 | (not set) | (not set) | 39.284452820116 | -76.612967751894 | 0.3238 | 2025-09-29 17:13:23 | on_bicycle | 100 | 2.0697917691132 | |
| 70186 | 250929_780745_16648422_1636 | 780745 | (not set) | (not set) | 38.897370812081 | -77.175328299375 | 9.1095 | 2025-09-29 17:13:24 | in_vehicle | 100 | 10.795998104554 | |
| 70187 | 250929_788559_16657212_1707 | 788559 | (not set) | (not set) | 38.998309076208 | -77.033427222595 | 1.0881 | 2025-09-29 17:13:24 | on_bicycle | 100 | 2.0653213765233 | |
| 70188 | 250929_779684_16420702_1603 | 779684 | (not set) | (not set) | 39.648322974638 | -77.154285067955 | 46.2074 | 2025-09-29 17:13:24 | in_vehicle | 100 | 4.0501756864288 | |
| 70189 | 250929_781457_16649141_1609 | 781457 | (not set) | (not set) | 38.844216171201 | -77.379968534201 | 21.4607 | 2025-09-29 17:13:25 | in_vehicle | 100 | 8.0735290173183 | |
| 70190 | 250929_784917_16652961_1700 | 784917 | (not set) | (not set) | 38.881966985522 | -77.232120013933 | 7.7906 | 2025-09-29 17:13:25 | in_vehicle | 100 | 10.657415934267 | |
| 70191 | 250929_789176_16657974_1625 | 789176 | (not set) | (not set) | 39.026747978319 | -77.071565021988 | 11.6564 | 2025-09-29 17:13:26 | in_vehicle | 100 | 0.084937459207668 | |
| 70192 | 250929_789176_16657974_1625 | 789176 | (not set) | (not set) | 39.026747978319 | -77.071565021988 | 11.6564 | 2025-09-29 17:13:26 | in_vehicle | 100 | 0.084937459207668 | |
| 70193 | 250929_786593_16654960_1645 | 786593 | (not set) | (not set) | 38.897309390496 | -76.966150691089 | 7.3113 | 2025-09-29 17:13:26 | unknown | 100 | 3.7551297754969 | |
| 70194 | 250929_785147_16653236_1633 | 785147 | (not set) | (not set) | 39.1444423 | -77.746261233333 | 26.0484 | 2025-09-29 17:13:26 | in_vehicle | 100 | 11.958300177922 | |
| 70195 | 250929_772509_16639785_1658 | 772509 | (not set) | (not set) | 38.809862 | -77.046063833333 | 6.9389 | 2025-09-29 17:13:27 | in_vehicle | 100 | 6.4641876849625 | |
| 70196 | 250929_784252_16656535_1656 | 784252 | (not set) | (not set) | 39.224113221541 | -76.80619483506 | 4.4588 | 2025-09-29 17:13:29 | in_vehicle | 100 | 13.156365392009 | |
| 70197 | 250929_772512_16639788_1640 | 772512 | (not set) | (not set) | 39.234281334753 | -76.691474869406 | 23.6788 | 2025-09-29 17:13:29 | unknown | 100 | 8.3328117875312 | |
| 70198 | 250929_788826_16657549_1706 | 788826 | (not set) | (not set) | 38.999248952339 | -77.098095780229 | 0 | 2025-09-29 17:13:29 | on_foot | 100 | -0.44703925898772 | |
| 70199 | 250929_788826_16657549_1706 | 788826 | (not set) | (not set) | 38.999248952339 | -77.098095780229 | 0.3145 | 2025-09-29 17:13:29 | on_foot | 100 | -0.44703925898772 | |
| 70200 | 250929_777830_16645457_1644 | 777830 | (not set) | (not set) | 38.879974432163 | -77.140597111699 | 7.1342 | 2025-09-29 17:13:30 | in_vehicle | 100 | -0.44703925898772 |